Time;durP1;ratioP1;P1;durP2;ratioP2;P2;SDS_P1;SDS_P2;PMS_P1;PMS_P2;Temp;Humidity;BMP_temperature;BMP_pressure;BME280_temperature;BME280_humidity;BME280_pressure;Samples;Min_cycle;Max_cycle;Signal;HPM_P1;HPM_P2
2024/03/19 00:01:11;;;;;;;15.60;5.85;;;9.70;76.50;;;;;;9178995;19;20019;-63
2024/03/19 00:04:18;;;;;;;12.55;5.85;;;9.60;76.40;;;;;;9177797;19;20019;-61
2024/03/19 00:07:23;;;;;;;17.65;5.35;;;9.60;76.50;;;;;;9179930;19;20377;-62
2024/03/19 00:10:31;;;;;;;16.75;5.82;;;9.50;76.50;;;;;;9178235;19;20022;-62
2024/03/19 00:13:36;;;;;;;13.68;5.28;;;9.50;76.50;;;;;;9178761;19;20015;-66
2024/03/19 00:16:42;;;;;;;15.38;5.35;;;9.50;76.60;;;;;;9178428;19;20030;-61
2024/03/19 00:19:47;;;;;;;20.33;7.05;;;9.40;76.50;;;;;;9178050;19;20010;-65
2024/03/19 00:22:53;;;;;;;20.40;6.32;;;9.40;76.60;;;;;;9178135;19;20014;-62
2024/03/19 00:26:00;;;;;;;15.63;7.43;;;9.40;76.60;;;;;;9178197;19;20031;-61
2024/03/19 00:29:07;;;;;;;12.93;5.75;;;9.40;76.70;;;;;;9178884;19;20050;-63
2024/03/19 00:32:12;;;;;;;18.52;6.70;;;9.30;76.60;;;;;;9178901;19;20032;-63
2024/03/19 00:35:18;;;;;;;13.27;6.85;;;9.30;76.70;;;;;;9178619;19;20603;-63
2024/03/19 00:38:23;;;;;;;17.10;7.88;;;9.20;76.70;;;;;;9176208;19;20022;-62
2024/03/19 00:41:32;;;;;;;14.80;6.60;;;9.20;76.70;;;;;;9176855;19;20025;-62
2024/03/19 00:44:37;;;;;;;20.88;7.10;;;9.20;76.80;;;;;;9176576;19;20017;-63
2024/03/19 00:47:43;;;;;;;19.83;7.03;;;9.20;76.80;;;;;;9178330;19;20380;-62
2024/03/19 00:50:48;;;;;;;15.13;6.47;;;9.10;76.80;;;;;;9172077;19;20460;-64
2024/03/19 00:53:54;;;;;;;15.15;6.82;;;9.10;76.80;;;;;;9177539;19;20018;-62
2024/03/19 00:57:01;;;;;;;14.75;6.90;;;9.10;76.90;;;;;;9178341;19;20025;-62
2024/03/19 01:00:11;;;;;;;16.85;7.65;;;9.10;77.00;;;;;;9175848;19;20014;-64
2024/03/19 01:03:15;;;;;;;19.45;6.90;;;9.00;76.90;;;;;;9175040;19;20037;-63
2024/03/19 01:06:22;;;;;;;23.70;8.98;;;9.00;76.90;;;;;;9176983;19;20089;-62
2024/03/19 01:09:27;;;;;;;17.23;8.02;;;9.00;77.00;;;;;;9176755;19;20015;-62
2024/03/19 01:12:36;;;;;;;19.48;7.28;;;9.00;77.10;;;;;;9176646;19;20710;-63
2024/03/19 01:15:40;;;;;;;15.90;6.60;;;9.00;77.10;;;;;;9176169;19;20018;-62
2024/03/19 01:18:47;;;;;;;14.82;5.43;;;8.90;77.10;;;;;;9175950;19;20018;-65
2024/03/19 01:21:51;;;;;;;14.13;5.63;;;8.90;77.10;;;;;;9176451;19;20344;-62
2024/03/19 01:24:58;;;;;;;18.55;5.45;;;8.90;77.20;;;;;;9173967;19;20019;-62
2024/03/19 01:28:05;;;;;;;13.18;4.50;;;8.90;77.20;;;;;;9174764;19;20025;-67
2024/03/19 01:31:11;;;;;;;13.40;4.40;;;8.80;77.20;;;;;;9175548;19;20054;-62
2024/03/19 01:34:16;;;;;;;8.27;5.00;;;8.80;77.20;;;;;;9175274;19;20014;-63
2024/03/19 01:37:22;;;;;;;11.15;4.35;;;8.80;77.30;;;;;;9174773;19;20078;-63
2024/03/19 01:40:26;;;;;;;11.20;4.45;;;8.80;77.30;;;;;;9175020;19;20021;-64
2024/03/19 01:43:35;;;;;;;13.55;5.38;;;8.80;78.00;;;;;;9175050;19;20010;-62
2024/03/19 01:46:40;;;;;;;15.52;5.22;;;8.80;77.50;;;;;;9174016;19;20102;-64
2024/03/19 01:49:47;;;;;;;9.20;4.90;;;8.70;77.40;;;;;;9171006;19;20018;-65
2024/03/19 01:52:53;;;;;;;15.20;5.40;;;8.70;77.50;;;;;;9176139;19;20712;-62
2024/03/19 01:56:00;;;;;;;13.80;5.65;;;8.70;77.50;;;;;;9175087;19;20022;-62
2024/03/19 01:59:08;;;;;;;17.50;5.32;;;8.70;77.50;;;;;;9174445;19;20022;-63
2024/03/19 02:02:34;;;;;;;11.52;5.20;;;8.70;77.60;;;;;;9173685;19;20360;-64
2024/03/19 02:05:38;;;;;;;11.80;5.22;;;8.70;77.60;;;;;;9172089;19;20011;-63
2024/03/19 02:08:59;;;;;;;13.00;5.30;;;8.70;77.70;;;;;;9174173;19;20019;-63
2024/03/19 02:12:03;;;;;;;12.73;5.68;;;8.70;77.70;;;;;;9172370;19;20470;-62
2024/03/19 02:15:13;;;;;;;13.43;5.50;;;8.70;77.70;;;;;;9173272;19;20018;-62
2024/03/19 02:18:17;;;;;;;12.00;5.25;;;8.70;77.70;;;;;;9174089;19;20021;-67
2024/03/19 02:21:25;;;;;;;12.25;5.63;;;8.70;78.40;;;;;;9173795;19;20014;-62
2024/03/19 02:24:32;;;;;;;11.65;6.38;;;8.70;77.80;;;;;;9173185;19;20010;-62
2024/03/19 02:27:38;;;;;;;10.93;5.68;;;8.70;77.90;;;;;;9173821;19;20019;-62
2024/03/19 02:30:42;;;;;;;11.43;5.65;;;8.70;77.80;;;;;;9173879;19;20493;-63
2024/03/19 02:33:49;;;;;;;12.07;5.45;;;8.70;77.90;;;;;;9173170;19;20022;-64
2024/03/19 02:36:53;;;;;;;15.32;6.50;;;8.70;77.90;;;;;;9173374;19;20029;-63
2024/03/19 02:40:05;;;;;;;11.20;5.70;;;8.70;77.90;;;;;;9173001;19;20037;-62
2024/03/19 02:43:09;;;;;;;15.43;5.43;;;8.70;78.00;;;;;;9172340;19;20029;-62
2024/03/19 02:46:15;;;;;;;12.88;5.57;;;8.70;78.00;;;;;;9170575;19;20015;-63
2024/03/19 02:49:20;;;;;;;13.73;6.32;;;8.70;78.00;;;;;;9170110;19;20025;-67
2024/03/19 02:52:26;;;;;;;12.55;6.35;;;8.70;78.00;;;;;;9172807;19;20026;-62
2024/03/19 02:55:33;;;;;;;17.58;7.05;;;8.70;78.10;;;;;;9172461;19;20010;-63
2024/03/19 02:58:39;;;;;;;18.63;7.50;;;8.70;78.20;;;;;;9173335;19;20018;-64
2024/03/19 03:01:44;;;;;;;16.80;7.93;;;8.70;78.20;;;;;;9172226;19;20535;-62
2024/03/19 03:04:50;;;;;;;19.17;8.05;;;8.70;78.30;;;;;;9170452;19;20041;-65
2024/03/19 03:07:54;;;;;;;20.20;7.70;;;8.70;78.20;;;;;;9172757;19;20114;-64
2024/03/19 03:11:03;;;;;;;17.73;8.27;;;8.80;78.30;;;;;;9171916;19;20018;-65
2024/03/19 03:14:08;;;;;;;20.33;9.32;;;8.80;78.40;;;;;;9172338;19;20017;-62
2024/03/19 03:17:14;;;;;;;18.38;8.43;;;8.80;78.40;;;;;;9171688;19;20774;-64
2024/03/19 03:20:19;;;;;;;20.90;10.13;;;8.80;78.50;;;;;;9172201;19;20010;-65
2024/03/19 03:23:25;;;;;;;19.27;9.35;;;8.80;78.50;;;;;;9173156;19;20017;-64
2024/03/19 03:26:32;;;;;;;24.27;9.95;;;8.80;78.40;;;;;;9177638;19;20657;-63
2024/03/19 03:29:38;;;;;;;23.33;9.90;;;8.80;78.50;;;;;;9180679;19;20029;-62
2024/03/19 03:32:45;;;;;;;20.90;10.23;;;8.90;78.50;;;;;;9180417;19;20018;-62
2024/03/19 03:35:51;;;;;;;18.98;10.30;;;8.90;78.60;;;;;;9179740;19;20018;-62
2024/03/19 03:38:56;;;;;;;28.55;10.52;;;8.90;78.60;;;;;;9177711;19;20048;-63
2024/03/19 03:42:05;;;;;;;27.20;11.63;;;8.90;78.60;;;;;;9181060;19;20025;-62
2024/03/19 03:45:11;;;;;;;24.60;10.60;;;8.90;78.60;;;;;;9178067;19;20014;-64
2024/03/19 03:48:17;;;;;;;28.45;12.00;;;8.90;78.70;;;;;;9180693;19;20018;-64
2024/03/19 03:51:22;;;;;;;23.42;11.80;;;9.00;78.70;;;;;;9175690;19;20085;-62
2024/03/19 03:54:28;;;;;;;25.95;11.57;;;9.00;78.70;;;;;;9176446;19;20019;-62
2024/03/19 03:57:35;;;;;;;23.25;11.98;;;9.00;78.70;;;;;;9179520;19;20069;-64
2024/03/19 04:00:42;;;;;;;27.98;11.80;;;9.00;78.80;;;;;;9180113;19;20029;-62
2024/03/19 04:03:46;;;;;;;29.55;12.65;;;9.00;78.80;;;;;;9179433;19;20014;-62
2024/03/19 04:06:52;;;;;;;24.25;11.40;;;9.00;78.80;;;;;;9178874;19;20023;-62
2024/03/19 04:09:57;;;;;;;28.10;11.90;;;9.10;79.00;;;;;;9179104;19;20011;-63
2024/03/19 04:13:06;;;;;;;22.33;9.65;;;9.10;78.90;;;;;;9178930;19;20019;-62
2024/03/19 04:16:10;;;;;;;30.30;10.05;;;9.10;79.00;;;;;;9178472;19;20662;-65
2024/03/19 04:19:17;;;;;;;23.70;10.00;;;9.10;79.00;;;;;;9178870;19;20034;-63
2024/03/19 04:22:22;;;;;;;23.02;9.90;;;9.10;79.00;;;;;;9179032;19;20029;-65
2024/03/19 04:25:29;;;;;;;21.90;10.23;;;9.20;79.10;;;;;;9177305;19;20021;-62
2024/03/19 04:28:36;;;;;;;20.38;9.20;;;9.20;79.10;;;;;;9177627;19;20478;-62
2024/03/19 04:31:42;;;;;;;21.50;9.30;;;9.20;79.40;;;;;;9178013;19;20062;-64
2024/03/19 04:34:46;;;;;;;21.98;10.20;;;9.20;79.20;;;;;;9176785;19;20463;-62
2024/03/19 04:37:52;;;;;;;20.05;9.63;;;9.30;79.30;;;;;;9176283;19;20042;-63
2024/03/19 04:40:57;;;;;;;30.58;9.93;;;9.30;79.20;;;;;;9178737;19;20029;-63
2024/03/19 04:44:06;;;;;;;15.30;7.88;;;9.30;79.20;;;;;;9177940;19;20023;-64
2024/03/19 04:47:10;;;;;;;28.70;10.45;;;9.30;79.30;;;;;;9177935;19;20018;-63
2024/03/19 04:50:17;;;;;;;23.73;10.18;;;9.30;79.30;;;;;;9171515;19;20054;-62
2024/03/19 04:53:21;;;;;;;20.63;10.43;;;9.40;79.30;;;;;;9177052;19;20474;-62
2024/03/19 04:56:27;;;;;;;27.63;12.55;;;9.40;79.40;;;;;;9177892;19;20050;-63
2024/03/19 04:59:34;;;;;;;30.08;13.05;;;9.40;79.40;;;;;;9176775;19;20074;-63
2024/03/19 05:02:41;;;;;;;32.90;14.05;;;9.40;79.40;;;;;;9176717;19;20014;-65
2024/03/19 05:05:45;;;;;;;31.33;13.73;;;9.40;79.40;;;;;;9175948;19;20082;-62
2024/03/19 05:08:52;;;;;;;38.33;14.32;;;9.40;79.40;;;;;;9176222;19;20022;-63
2024/03/19 05:11:56;;;;;;;34.13;14.23;;;9.40;79.40;;;;;;9177153;19;20585;-65
2024/03/19 05:15:06;;;;;;;32.22;15.48;;;9.40;79.50;;;;;;9177031;19;20018;-62
2024/03/19 05:18:10;;;;;;;32.55;15.55;;;9.50;79.60;;;;;;9176131;19;20018;-63
2024/03/19 05:21:16;;;;;;;33.58;15.15;;;9.50;79.50;;;;;;9175880;19;20041;-64
2024/03/19 05:24:21;;;;;;;32.67;16.08;;;9.50;79.60;;;;;;9176127;19;20012;-63
2024/03/19 05:27:27;;;;;;;31.75;15.63;;;9.50;80.20;;;;;;9176158;19;20019;-63
2024/03/19 05:30:34;;;;;;;36.10;15.20;;;9.60;79.70;;;;;;9173526;19;20014;-63
2024/03/19 05:33:41;;;;;;;35.92;16.58;;;9.60;80.10;;;;;;9174592;19;20369;-63
2024/03/19 05:36:46;;;;;;;38.53;15.82;;;9.60;79.70;;;;;;9173826;19;20027;-63
2024/03/19 05:39:52;;;;;;;29.92;14.88;;;9.60;79.70;;;;;;9173925;19;20022;-64
2024/03/19 05:42:57;;;;;;;36.08;16.30;;;9.60;79.70;;;;;;9174604;19;20021;-63
2024/03/19 05:46:06;;;;;;;45.53;16.40;;;9.60;80.30;;;;;;9171534;19;20026;-61
2024/03/19 05:49:11;;;;;;;36.20;16.35;;;9.60;79.70;;;;;;9175500;19;20066;-62
2024/03/19 05:52:17;;;;;;;39.30;15.90;;;9.70;79.80;;;;;;9170421;19;20491;-64
2024/03/19 05:55:22;;;;;;;38.80;16.17;;;9.70;79.90;;;;;;9175157;19;20032;-63
2024/03/19 05:58:28;;;;;;;43.35;16.25;;;9.70;79.80;;;;;;9172529;19;20010;-63
2024/03/19 06:01:35;;;;;;;40.38;17.00;;;9.80;79.90;;;;;;9173602;19;20014;-64
2024/03/19 06:04:41;;;;;;;35.05;16.52;;;9.80;80.00;;;;;;9173733;19;20029;-61
2024/03/19 06:07:46;;;;;;;39.08;17.02;;;9.80;79.90;;;;;;9172595;19;20010;-62
2024/03/19 06:10:52;;;;;;;40.17;17.42;;;9.80;79.90;;;;;;9172978;19;20026;-62
2024/03/19 06:13:56;;;;;;;35.53;16.65;;;9.80;80.00;;;;;;9172203;19;20021;-63
2024/03/19 06:17:06;;;;;;;48.28;17.25;;;9.80;80.00;;;;;;9173126;19;20018;-62
2024/03/19 06:20:14;;;;;;;38.53;16.10;;;9.80;80.00;;;;;;9172726;19;20629;-65
2024/03/19 06:23:21;;;;;;;35.08;15.48;;;9.90;80.10;;;;;;9172096;19;20021;-64
2024/03/19 06:26:25;;;;;;;41.05;17.70;;;9.90;80.10;;;;;;9171046;19;20018;-63
2024/03/19 06:29:32;;;;;;;37.97;15.70;;;9.90;80.10;;;;;;9173536;19;20029;-63
2024/03/19 06:32:39;;;;;;;36.60;15.52;;;9.90;80.10;;;;;;9172975;19;20012;-62
2024/03/19 06:35:45;;;;;;;35.55;15.00;;;10.00;80.20;;;;;;9173766;19;20018;-62
2024/03/19 06:38:49;;;;;;;38.85;15.43;;;10.00;80.20;;;;;;9171602;19;20014;-66
2024/03/19 06:41:56;;;;;;;37.75;15.05;;;10.00;80.20;;;;;;9170881;19;20011;-66
2024/03/19 06:45:00;;;;;;;42.50;15.30;;;10.00;80.20;;;;;;9172740;19;20019;-64
2024/03/19 06:48:09;;;;;;;40.45;16.10;;;10.10;80.30;;;;;;9173051;19;20507;-62
2024/03/19 06:51:14;;;;;;;38.63;15.15;;;10.10;80.40;;;;;;9168309;19;20025;-64
2024/03/19 06:54:20;;;;;;;33.47;14.98;;;10.10;80.40;;;;;;9172898;19;20484;-65
2024/03/19 06:57:25;;;;;;;32.08;15.80;;;10.20;80.40;;;;;;9173093;19;20011;-65
2024/03/19 07:00:32;;;;;;;31.10;14.27;;;10.20;80.40;;;;;;9180878;19;20495;-63
2024/03/19 07:03:39;;;;;;;33.58;13.98;;;10.20;80.40;;;;;;9181095;19;20024;-64
2024/03/19 07:06:46;;;;;;;32.95;14.88;;;10.20;80.50;;;;;;9178681;19;20022;-62
2024/03/19 07:09:53;;;;;;;35.33;14.60;;;10.30;80.60;;;;;;9182199;19;20026;-62
2024/03/19 07:13:00;;;;;;;35.15;14.73;;;10.30;80.50;;;;;;9178763;19;20014;-63
2024/03/19 07:16:06;;;;;;;33.83;14.15;;;10.30;80.50;;;;;;9177239;19;20022;-65
2024/03/19 07:19:14;;;;;;;32.05;14.02;;;10.30;80.60;;;;;;9180308;19;20011;-63
2024/03/19 07:22:19;;;;;;;30.80;13.23;;;10.40;80.70;;;;;;9179559;19;20010;-66
2024/03/19 07:25:25;;;;;;;36.22;14.68;;;10.40;80.60;;;;;;9180310;19;20018;-63
2024/03/19 07:28:30;;;;;;;43.80;14.80;;;10.50;80.70;;;;;;9179252;19;20052;-64
2024/03/19 07:31:39;;;;;;;27.15;14.15;;;10.50;81.30;;;;;;9180171;19;20011;-64
2024/03/19 07:34:47;;;;;;;32.38;15.80;;;10.50;80.80;;;;;;9180662;19;20913;-64
2024/03/19 07:37:53;;;;;;;32.95;14.57;;;10.60;80.80;;;;;;9178825;19;20026;-64
2024/03/19 07:40:58;;;;;;;43.30;16.17;;;10.60;80.80;;;;;;9176235;19;20014;-64
2024/03/19 07:44:04;;;;;;;36.67;16.55;;;10.60;80.90;;;;;;9180330;19;20018;-67
2024/03/19 07:47:08;;;;;;;35.42;15.10;;;10.70;81.00;;;;;;9177496;19;20014;-62
2024/03/19 07:50:22;;;;;;;33.08;15.07;;;10.80;81.00;;;;;;9175586;19;20026;-65
2024/03/19 07:53:27;;;;;;;34.25;15.68;;;10.80;81.10;;;;;;9180698;19;20089;-64
2024/03/19 07:56:34;;;;;;;32.83;15.30;;;10.90;81.10;;;;;;9179571;19;20606;-64
2024/03/19 07:59:38;;;;;;;35.92;15.35;;;11.00;81.30;;;;;;9179580;19;20014;-65
2024/03/19 08:02:44;;;;;;;34.22;15.43;;;11.00;81.30;;;;;;9179333;19;20502;-66
2024/03/19 08:05:59;;;;;;;37.10;16.20;;;11.10;81.40;;;;;;9178755;19;20034;-64
2024/03/19 08:09:06;;;;;;;41.92;16.75;;;11.20;81.50;;;;;;9177561;19;20018;-65
2024/03/19 08:12:11;;;;;;;41.83;16.98;;;11.30;81.50;;;;;;9179333;19;20018;-65
2024/03/19 08:15:17;;;;;;;40.72;16.02;;;11.30;81.40;;;;;;9178248;19;20010;-65
2024/03/19 08:18:21;;;;;;;41.63;16.65;;;11.40;81.50;;;;;;9179360;19;20011;-63
2024/03/19 08:21:30;;;;;;;32.67;15.50;;;11.50;81.50;;;;;;9178539;19;20033;-62
2024/03/19 08:24:35;;;;;;;29.90;16.00;;;11.60;81.70;;;;;;9177596;19;20013;-64
2024/03/19 08:27:41;;;;;;;39.50;14.55;;;11.70;81.70;;;;;;9176366;19;20490;-66
2024/03/19 08:30:47;;;;;;;32.83;14.77;;;11.90;82.30;;;;;;9178760;19;20010;-64
2024/03/19 08:33:53;;;;;;;29.92;12.50;;;11.90;81.70;;;;;;9176896;19;20015;-63
2024/03/19 08:37:01;;;;;;;28.15;12.68;;;12.10;81.70;;;;;;9177406;19;20081;-64
2024/03/19 08:40:09;;;;;;;27.90;10.80;;;12.20;81.70;;;;;;9177168;19;20018;-63
2024/03/19 08:43:14;;;;;;;29.90;11.90;;;12.30;81.60;;;;;;9177514;19;20082;-64
2024/03/19 08:46:20;;;;;;;25.63;11.15;;;12.40;81.50;;;;;;9175961;19;20030;-64
2024/03/19 08:49:25;;;;;;;27.92;11.32;;;12.50;81.40;;;;;;9172911;19;20021;-67
2024/03/19 08:52:34;;;;;;;20.23;10.10;;;12.60;81.30;;;;;;9177880;19;20018;-63
2024/03/19 08:55:38;;;;;;;23.63;10.38;;;12.70;81.20;;;;;;9176348;19;20018;-63
2024/03/19 08:58:46;;;;;;;22.48;10.07;;;12.70;81.10;;;;;;9177618;19;20503;-63
2024/03/19 09:01:50;;;;;;;22.48;11.13;;;12.80;81.10;;;;;;9177399;19;20027;-72
2024/03/19 09:04:57;;;;;;;26.15;10.27;;;12.90;81.00;;;;;;9176335;19;20018;-64
2024/03/19 09:08:04;;;;;;;21.90;9.82;;;12.90;80.90;;;;;;9173592;19;20022;-65
2024/03/19 09:11:10;;;;;;;22.10;9.35;;;13.00;80.90;;;;;;9176584;19;20018;-63
2024/03/19 09:14:15;;;;;;;19.92;9.52;;;13.10;80.80;;;;;;9176465;19;20029;-66
2024/03/19 09:17:22;;;;;;;17.70;9.05;;;13.10;80.70;;;;;;9176214;19;20658;-62
2024/03/19 09:20:26;;;;;;;22.45;8.32;;;13.20;80.80;;;;;;9175122;19;20070;-63
2024/03/19 09:23:35;;;;;;;14.30;7.00;;;13.20;80.60;;;;;;9176436;19;20023;-63
2024/03/19 09:26:39;;;;;;;14.93;7.22;;;13.20;80.60;;;;;;9173391;19;20468;-65
2024/03/19 09:29:46;;;;;;;18.15;7.57;;;13.30;80.60;;;;;;9168542;19;20018;-65
2024/03/19 09:32:50;;;;;;;17.75;7.82;;;13.30;80.50;;;;;;9175527;19;20053;-67
2024/03/19 09:35:56;;;;;;;20.23;7.90;;;13.30;80.40;;;;;;9174899;19;20010;-63
2024/03/19 09:39:10;;;;;;;21.90;8.55;;;13.40;80.40;;;;;;9171770;19;20022;-65
2024/03/19 09:42:18;;;;;;;19.20;8.23;;;13.40;80.30;;;;;;9174644;19;20015;-65
2024/03/19 09:45:29;;;;;;;14.85;7.85;;;13.50;80.30;;;;;;9175059;19;20361;-64
2024/03/19 09:48:36;;;;;;;16.42;6.60;;;13.50;80.30;;;;;;9167399;19;20368;-66
2024/03/19 09:51:41;;;;;;;15.27;6.90;;;13.60;80.30;;;;;;9169563;19;20086;-64
2024/03/19 09:54:50;;;;;;;16.55;6.78;;;13.60;80.20;;;;;;9174664;19;20011;-63
2024/03/19 09:57:58;;;;;;;16.70;6.10;;;13.70;80.20;;;;;;9175200;19;20041;-61
2024/03/19 10:01:05;;;;;;;15.68;6.00;;;13.70;80.10;;;;;;9174880;19;20011;-65
2024/03/19 10:04:16;;;;;;;11.88;5.40;;;13.80;80.10;;;;;;9174793;19;20021;-63
2024/03/19 10:07:24;;;;;;;20.92;5.97;;;13.80;80.00;;;;;;9173178;19;20014;-64
2024/03/19 10:10:32;;;;;;;9.90;5.03;;;13.90;80.00;;;;;;9174373;19;20716;-64
2024/03/19 10:13:39;;;;;;;17.88;5.60;;;13.90;79.90;;;;;;9174589;19;20007;-63
2024/03/19 10:16:45;;;;;;;11.98;4.68;;;14.00;79.90;;;;;;9173891;19;20767;-66
2024/03/19 10:19:54;;;;;;;9.80;4.55;;;14.00;79.80;;;;;;9174398;19;20019;-64
2024/03/19 10:22:58;;;;;;;11.25;4.15;;;14.10;79.70;;;;;;9173879;19;20029;-63
2024/03/19 10:26:08;;;;;;;11.88;4.78;;;14.10;80.30;;;;;;9173650;19;20022;-63
2024/03/19 10:29:14;;;;;;;12.88;5.03;;;14.20;79.80;;;;;;9174036;19;20015;-64
2024/03/19 10:32:21;;;;;;;19.17;6.80;;;14.30;79.80;;;;;;9172930;19;20018;-71
2024/03/19 10:35:26;;;;;;;14.70;4.65;;;14.30;79.70;;;;;;9172886;19;20017;-71
2024/03/19 10:38:33;;;;;;;7.55;3.50;;;14.40;79.70;;;;;;9171978;19;20010;-73
2024/03/19 10:41:42;;;;;;;9.68;3.92;;;14.50;79.60;;;;;;9172587;19;20372;-68
2024/03/19 10:44:48;;;;;;;7.47;3.97;;;14.60;79.40;;;;;;9171525;19;20022;-69
2024/03/19 10:47:55;;;;;;;8.43;3.72;;;14.70;79.40;;;;;;9171306;19;20051;-69
2024/03/19 10:51:02;;;;;;;8.90;3.35;;;14.80;79.40;;;;;;9169094;19;20657;-69
2024/03/19 10:54:09;;;;;;;8.52;3.42;;;14.90;79.30;;;;;;9172337;19;20487;-69
2024/03/19 10:57:20;;;;;;;5.40;2.00;;;15.00;79.20;;;;;;9172832;19;20029;-73
2024/03/19 11:00:27;;;;;;;3.17;2.20;;;15.10;79.00;;;;;;9168911;19;20026;-72
2024/03/19 11:03:36;;;;;;;7.55;3.30;;;15.20;79.00;;;;;;9170256;19;20014;-73
2024/03/19 11:06:42;;;;;;;7.43;3.25;;;15.40;78.80;;;;;;9170530;19;21593;-73
2024/03/19 11:09:53;;;;;;;9.68;3.20;;;15.60;78.80;;;;;;9172230;19;20014;-71
2024/03/19 11:13:08;;;;;;;5.97;2.97;;;15.70;78.60;;;;;;9172074;19;20523;-71
2024/03/19 11:16:19;;;;;;;2.58;1.67;;;15.90;78.40;;;;;;9169903;19;20014;-73
2024/03/19 11:19:25;;;;;;;6.32;2.30;;;16.00;78.30;;;;;;9171586;19;20018;-72
2024/03/19 11:22:34;;;;;;;8.15;1.75;;;16.20;78.10;;;;;;9171017;19;20372;-73
2024/03/19 11:25:46;;;;;;;4.22;1.90;;;16.30;77.90;;;;;;9172258;19;20018;-72
2024/03/19 11:29:05;;;;;;;5.28;2.22;;;16.50;77.70;;;;;;9169167;19;20014;-72
2024/03/19 11:35:42;;;;;;;4.80;2.45;;;16.70;76.90;;;;;;9171428;19;20492;-74
2024/03/19 11:38:50;;;;;;;4.57;1.90;;;16.90;76.90;;;;;;9167366;19;20014;-71
2024/03/19 11:41:57;;;;;;;6.88;2.42;;;16.90;76.60;;;;;;9170988;19;20018;-71
2024/03/19 11:45:05;;;;;;;5.68;2.15;;;17.00;76.50;;;;;;9173521;19;20025;-72
2024/03/19 11:48:17;;;;;;;3.85;2.10;;;17.10;76.30;;;;;;9177715;19;20011;-72
2024/03/19 11:51:21;;;;;;;5.22;2.35;;;17.30;76.20;;;;;;9175262;19;20037;-72
2024/03/19 11:54:28;;;;;;;6.40;2.60;;;17.40;76.10;;;;;;9180955;19;20018;-75
2024/03/19 11:57:33;;;;;;;6.07;2.30;;;17.50;76.00;;;;;;9180264;19;20054;-73
2024/03/19 12:00:42;;;;;;;12.75;2.90;;;17.60;75.80;;;;;;9180654;19;20041;-70
2024/03/19 12:03:48;;;;;;;11.02;4.22;;;17.70;75.40;;;;;;9178590;19;20013;-69
2024/03/19 12:06:55;;;;;;;8.85;2.53;;;17.80;75.20;;;;;;9178225;19;20431;-64
2024/03/19 12:09:59;;;;;;;10.25;2.97;;;17.90;75.10;;;;;;9177876;19;20011;-66
2024/03/19 12:13:06;;;;;;;7.07;2.65;;;18.00;74.80;;;;;;9178839;19;20029;-66
2024/03/19 12:16:13;;;;;;;7.00;2.30;;;18.10;74.70;;;;;;9178872;19;20022;-66
2024/03/19 12:19:21;;;;;;;4.47;1.92;;;18.20;74.20;;;;;;9176930;19;20337;-65
2024/03/19 12:22:28;;;;;;;3.90;2.00;;;18.20;74.10;;;;;;9178915;19;20014;-65
2024/03/19 12:25:37;;;;;;;6.63;2.15;;;18.20;74.40;;;;;;9179241;19;20388;-67
2024/03/19 12:28:44;;;;;;;8.80;2.47;;;18.20;73.70;;;;;;9177491;19;20029;-66
2024/03/19 12:31:59;;;;;;;7.07;2.20;;;18.30;73.60;;;;;;9177502;19;20033;-66
2024/03/19 12:35:08;;;;;;;6.50;2.30;;;18.30;73.30;;;;;;9178509;19;20082;-69
2024/03/19 12:38:15;;;;;;;4.85;2.10;;;18.30;73.10;;;;;;9175593;19;20015;-68
2024/03/19 12:41:19;;;;;;;6.35;2.60;;;18.30;73.00;;;;;;9178263;19;21271;-66
2024/03/19 12:44:27;;;;;;;4.68;1.80;;;18.30;73.00;;;;;;9177201;19;20019;-66
2024/03/19 12:47:34;;;;;;;6.18;2.45;;;18.30;72.80;;;;;;9177569;19;20031;-65
2024/03/19 12:50:41;;;;;;;6.57;1.98;;;18.30;72.70;;;;;;9173655;19;20022;-66
2024/03/19 12:53:45;;;;;;;5.80;1.83;;;18.20;72.60;;;;;;9177432;19;20074;-67
2024/03/19 12:56:51;;;;;;;5.10;1.17;;;18.20;72.40;;;;;;9176729;19;20019;-67
2024/03/19 12:59:56;;;;;;;4.28;1.65;;;18.20;72.20;;;;;;9177337;19;20082;-66
2024/03/19 13:03:05;;;;;;;3.47;1.45;;;18.20;72.30;;;;;;9176749;19;20018;-67
2024/03/19 13:06:09;;;;;;;3.92;1.42;;;18.20;71.90;;;;;;9176175;19;20424;-65
2024/03/19 13:09:16;;;;;;;5.00;1.58;;;18.30;72.00;;;;;;9174893;19;20018;-66
2024/03/19 13:12:20;;;;;;;4.05;1.50;;;18.20;71.90;;;;;;9176723;19;20014;-66
2024/03/19 13:15:27;;;;;;;6.53;2.00;;;18.30;71.80;;;;;;9174932;19;20018;-65
2024/03/19 13:18:34;;;;;;;7.05;1.90;;;18.30;71.60;;;;;;9176563;19;20540;-67
2024/03/19 13:21:44;;;;;;;7.47;1.92;;;18.30;71.40;;;;;;9176329;19;20021;-66
2024/03/19 13:24:48;;;;;;;10.80;1.95;;;18.30;71.40;;;;;;9174383;19;20551;-67
2024/03/19 13:27:54;;;;;;;6.43;1.80;;;18.30;71.40;;;;;;9175122;19;20023;-66
2024/03/19 13:30:59;;;;;;;10.20;2.05;;;18.30;71.30;;;;;;9175809;19;20018;-65
2024/03/19 13:34:08;;;;;;;5.53;2.67;;;18.30;71.20;;;;;;9175410;19;20040;-65
2024/03/19 13:37:13;;;;;;;5.13;1.70;;;18.30;71.10;;;;;;9173867;19;20396;-65
2024/03/19 13:40:19;;;;;;;5.32;2.00;;;18.30;71.10;;;;;;9175309;19;20515;-65
2024/03/19 13:43:24;;;;;;;4.68;2.13;;;18.30;71.00;;;;;;9175018;19;20014;-66
2024/03/19 13:46:31;;;;;;;4.63;1.92;;;18.30;71.00;;;;;;9174634;19;20029;-66
2024/03/19 13:49:39;;;;;;;8.00;1.90;;;18.30;71.00;;;;;;9169157;19;20201;-67
2024/03/19 13:52:46;;;;;;;8.75;2.03;;;18.30;70.80;;;;;;9175206;19;20025;-65
2024/03/19 13:55:50;;;;;;;7.45;1.90;;;18.20;71.40;;;;;;9171113;19;20367;-68
2024/03/19 13:58:58;;;;;;;12.40;2.10;;;18.30;70.80;;;;;;9175199;19;20022;-67
2024/03/19 14:02:03;;;;;;;5.75;2.30;;;18.30;70.80;;;;;;9174830;19;20011;-67
2024/03/19 14:05:12;;;;;;;4.45;2.03;;;18.30;70.70;;;;;;9174122;19;20020;-67
2024/03/19 14:08:18;;;;;;;9.40;2.22;;;18.30;70.60;;;;;;9171634;19;20090;-66
2024/03/19 14:11:25;;;;;;;9.80;2.63;;;18.30;71.20;;;;;;9173279;19;20010;-66
2024/03/19 14:14:33;;;;;;;8.05;2.15;;;18.20;70.50;;;;;;9174360;19;20018;-64
2024/03/19 14:17:45;;;;;;;7.28;2.10;;;18.20;70.50;;;;;;9172746;19;20030;-65
2024/03/19 14:20:53;;;;;;;4.22;1.63;;;18.20;70.50;;;;;;9173817;19;20027;-66
2024/03/19 14:23:59;;;;;;;10.15;2.60;;;18.20;70.40;;;;;;9173794;19;20126;-67
2024/03/19 14:27:03;;;;;;;9.38;2.08;;;18.20;70.40;;;;;;9172643;19;20017;-66
2024/03/19 14:30:11;;;;;;;6.28;2.22;;;18.20;71.00;;;;;;9170408;19;20026;-67
2024/03/19 14:33:16;;;;;;;4.57;1.77;;;18.20;70.30;;;;;;9171321;19;20032;-67
2024/03/19 14:36:25;;;;;;;8.20;2.28;;;18.20;70.30;;;;;;9172727;19;20017;-66
2024/03/19 14:39:30;;;;;;;8.18;1.77;;;18.20;70.10;;;;;;9172604;19;20809;-64
2024/03/19 14:42:36;;;;;;;5.18;1.80;;;18.30;70.20;;;;;;9173746;19;20041;-66
2024/03/19 14:45:41;;;;;;;4.90;1.92;;;18.30;70.00;;;;;;9171089;19;20019;-67
2024/03/19 14:48:48;;;;;;;6.70;2.03;;;18.30;70.00;;;;;;9172526;19;20014;-66
2024/03/19 14:51:57;;;;;;;7.32;2.60;;;18.30;69.80;;;;;;9168326;19;20019;-68
2024/03/19 14:55:06;;;;;;;6.07;2.55;;;18.30;69.70;;;;;;9170732;19;20011;-65
2024/03/19 14:58:10;;;;;;;8.68;2.10;;;18.30;69.80;;;;;;9172298;19;20019;-67
2024/03/19 15:01:17;;;;;;;8.88;2.17;;;18.30;69.70;;;;;;9171514;19;20017;-65
2024/03/19 15:04:21;;;;;;;7.75;2.17;;;18.30;69.60;;;;;;9171293;19;20038;-67
2024/03/19 15:07:30;;;;;;;8.30;2.20;;;18.30;69.60;;;;;;9171296;19;20459;-65
2024/03/19 15:10:34;;;;;;;7.18;2.25;;;18.30;69.50;;;;;;9169849;19;20027;-69
2024/03/19 15:13:41;;;;;;;13.73;2.53;;;18.20;69.50;;;;;;9172739;19;20015;-66
2024/03/19 15:16:45;;;;;;;4.35;2.03;;;18.30;69.50;;;;;;9171030;19;20015;-65
2024/03/19 15:19:51;;;;;;;9.55;2.47;;;18.20;69.40;;;;;;9177286;19;20014;-66
2024/03/19 15:22:58;;;;;;;4.95;2.40;;;18.20;69.40;;;;;;9181504;19;20102;-64
2024/03/19 15:26:05;;;;;;;15.20;2.92;;;18.20;69.40;;;;;;9180866;19;20025;-64
2024/03/19 15:29:10;;;;;;;12.43;2.67;;;18.20;69.50;;;;;;9179075;19;20045;-65
2024/03/19 15:32:17;;;;;;;16.55;3.92;;;18.10;69.40;;;;;;9180585;19;20010;-66
2024/03/19 15:35:21;;;;;;;9.68;2.97;;;18.10;69.50;;;;;;9180021;19;20018;-66
2024/03/19 15:38:30;;;;;;;10.73;2.83;;;18.10;69.40;;;;;;9178311;19;20018;-65
2024/03/19 15:41:35;;;;;;;8.52;2.97;;;18.10;69.40;;;;;;9177628;19;20015;-65
2024/03/19 15:44:41;;;;;;;12.35;2.97;;;18.10;69.40;;;;;;9177508;19;20015;-65
2024/03/19 15:47:45;;;;;;;6.70;2.42;;;18.00;69.40;;;;;;9178633;19;20032;-65
2024/03/19 15:50:53;;;;;;;7.93;2.40;;;18.00;69.40;;;;;;9172770;19;20022;-65
2024/03/19 15:54:00;;;;;;;13.90;3.22;;;17.90;69.30;;;;;;9180563;19;20036;-66
2024/03/19 15:57:07;;;;;;;7.85;2.70;;;17.90;69.20;;;;;;9180360;19;20015;-66
2024/03/19 16:00:13;;;;;;;10.48;2.72;;;17.90;69.30;;;;;;9179501;19;20015;-66
2024/03/19 16:03:19;;;;;;;10.85;3.17;;;17.80;69.30;;;;;;9177986;19;20606;-66
2024/03/19 16:06:24;;;;;;;9.88;2.83;;;17.80;69.30;;;;;;9177985;19;20021;-65